Logo
Newest Metar:
CYXE 170700Z 21006KT 15SM FEW160 M09/M11 A2985 RMK AC1 SLP142

Last 10 Metars:
CYXE 170600Z 23007KT 15SM FEW160 M09/M10 A2987 RMK AC2 AURBO SLP150
CYXE 170500Z 22009KT 15SM SCT170 M07/M09 A2988 RMK AC4 SLP153
CYXE 170400Z 23010KT 15SM SCT170 M06/M08 A2988 RMK AC4 SLP153
CYXE 170300Z 24010KT 15SM SCT170 M04/M07 A2988 RMK AC4 SLP154
CYXE 170200Z 25011KT 15SM FEW090 BKN170 M03/M06 A2988 RMK AC2AC3 SLP152
CYXE 170100Z 24013KT 15SM FEW030 BKN090 M03/M06 A2988 RMK SC2AC4 SLP152
CYXE 170023Z 24008KT 15SM SCT030 BKN090 M02/M05 A2988 RMK SC3AC3 SLP149
CYXE 170000Z 26008KT 8SM -SN SCT030 BKN090 M02/M04 A2987 RMK SC4AC3 SLP147
CYXE 162300Z 25011KT 10SM -SN FEW015 BKN030 BKN090 M01/M03 A2985 RMK SF1SC5AC1 SLP140
CYXE 162242Z 26011KT 8SM -SN FEW015 BKN030 BKN090 M01/M03 A2985 RMK SF1SC5AC1 SLP137

Click here for Regina (YQR) International Weather